<?xml version="1.0" encoding="UTF-8" standalone="no" ?>
<gpx xmlns="http://www.topografix.com/GPX/1/1" xmlns:xsi="http://www.w3.org/2001/XMLSchema-instance" xsi:schemaLocation="http://www.topografix.com/GPX/1/1 http://www.topografix.com/GPX/1/1/gpx.xsd" version="1.1" creator="VisuGPX - https://www.visugpx.com">
  <metadata>
    <name>ARQUES LA SEYNE SUR MER 1497 KM</name>
    <desc><![CDATA[Rando de Arques dans le Pas de Calais jusque La Seyne sur Mer dans le Var, 1497 km]]></desc>
  </metadata>
  <trk>
    <name><![CDATA[43 - VANOSC SATILLIEU 21 KM]]></name>
    <extensions>
      <line xmlns="http://www.topografix.com/GPX/gpx_style/0/2">
        <color>FF00FF</color>
        <width>4</width>
      </line>
    </extensions>
    <trkseg>
      <trkpt lat="45.2254" lon="4.55186">
        <ele>637</ele>
        <time>2021-11-28T10:01:36+01:00</time>
      </trkpt>
      <trkpt lat="45.2244" lon="4.5513">
        <ele>637</ele>
        <time>2021-11-28T10:01:41+01:00</time>
      </trkpt>
      <trkpt lat="45.22296" lon="4.55051">
        <ele>623</ele>
        <time>2021-11-28T10:01:46+01:00</time>
      </trkpt>
      <trkpt lat="45.22206" lon="4.54911">
        <ele>616</ele>
        <time>2021-11-28T10:01:51+01:00</time>
      </trkpt>
      <trkpt lat="45.22186" lon="4.54838">
        <ele>614</ele>
        <time>2021-11-28T10:01:56+01:00</time>
      </trkpt>
      <trkpt lat="45.22152" lon="4.54952">
        <ele>601</ele>
        <time>2021-11-28T10:02:01+01:00</time>
      </trkpt>
      <trkpt lat="45.22118" lon="4.54939">
        <ele>594</ele>
        <time>2021-11-28T10:02:06+01:00</time>
      </trkpt>
      <trkpt lat="45.22077" lon="4.54723">
        <ele>586</ele>
        <time>2021-11-28T10:02:11+01:00</time>
      </trkpt>
      <trkpt lat="45.22094" lon="4.54678">
        <ele>589</ele>
        <time>2021-11-28T10:02:16+01:00</time>
      </trkpt>
      <trkpt lat="45.22062" lon="4.54644">
        <ele>593</ele>
        <time>2021-11-28T10:02:21+01:00</time>
      </trkpt>
      <trkpt lat="45.22032" lon="4.54562">
        <ele>603</ele>
        <time>2021-11-28T10:02:26+01:00</time>
      </trkpt>
      <trkpt lat="45.21948" lon="4.54491">
        <ele>617</ele>
        <time>2021-11-28T10:02:31+01:00</time>
      </trkpt>
      <trkpt lat="45.21801" lon="4.54418">
        <ele>652</ele>
        <time>2021-11-28T10:02:36+01:00</time>
      </trkpt>
      <trkpt lat="45.21672" lon="4.54269">
        <ele>668</ele>
        <time>2021-11-28T10:02:41+01:00</time>
      </trkpt>
      <trkpt lat="45.21572" lon="4.54127">
        <ele>684</ele>
        <time>2021-11-28T10:02:46+01:00</time>
      </trkpt>
      <trkpt lat="45.21487" lon="4.54069">
        <ele>695</ele>
        <time>2021-11-28T10:02:51+01:00</time>
      </trkpt>
      <trkpt lat="45.2139" lon="4.54073">
        <ele>714</ele>
        <time>2021-11-28T10:02:56+01:00</time>
      </trkpt>
      <trkpt lat="45.21472" lon="4.54121">
        <ele>704</ele>
        <time>2021-11-28T10:03:01+01:00</time>
      </trkpt>
      <trkpt lat="45.21497" lon="4.54312">
        <ele>717</ele>
        <time>2021-11-28T10:03:06+01:00</time>
      </trkpt>
      <trkpt lat="45.21565" lon="4.54515">
        <ele>711</ele>
        <time>2021-11-28T10:03:11+01:00</time>
      </trkpt>
      <trkpt lat="45.21597" lon="4.54631">
        <ele>707</ele>
        <time>2021-11-28T10:03:16+01:00</time>
      </trkpt>
      <trkpt lat="45.21595" lon="4.54788">
        <ele>702</ele>
        <time>2021-11-28T10:03:21+01:00</time>
      </trkpt>
      <trkpt lat="45.21562" lon="4.54889">
        <ele>695</ele>
        <time>2021-11-28T10:03:26+01:00</time>
      </trkpt>
      <trkpt lat="45.21507" lon="4.54945">
        <ele>695</ele>
        <time>2021-11-28T10:03:31+01:00</time>
      </trkpt>
      <trkpt lat="45.21387" lon="4.55163">
        <ele>710</ele>
        <time>2021-11-28T10:03:36+01:00</time>
      </trkpt>
      <trkpt lat="45.21272" lon="4.55322">
        <ele>726</ele>
        <time>2021-11-28T10:03:41+01:00</time>
      </trkpt>
      <trkpt lat="45.21193" lon="4.55345">
        <ele>725</ele>
        <time>2021-11-28T10:03:46+01:00</time>
      </trkpt>
      <trkpt lat="45.21125" lon="4.55302">
        <ele>716</ele>
        <time>2021-11-28T10:03:51+01:00</time>
      </trkpt>
      <trkpt lat="45.21011" lon="4.55087">
        <ele>691</ele>
        <time>2021-11-28T10:03:56+01:00</time>
      </trkpt>
      <trkpt lat="45.20957" lon="4.54965">
        <ele>704</ele>
        <time>2021-11-28T10:04:01+01:00</time>
      </trkpt>
      <trkpt lat="45.20929" lon="4.55044">
        <ele>686</ele>
        <time>2021-11-28T10:04:06+01:00</time>
      </trkpt>
      <trkpt lat="45.20838" lon="4.55277">
        <ele>650</ele>
        <time>2021-11-28T10:04:11+01:00</time>
      </trkpt>
      <trkpt lat="45.20763" lon="4.553">
        <ele>634</ele>
        <time>2021-11-28T10:04:16+01:00</time>
      </trkpt>
      <trkpt lat="45.20767" lon="4.55389">
        <ele>617</ele>
        <time>2021-11-28T10:04:21+01:00</time>
      </trkpt>
      <trkpt lat="45.20722" lon="4.55384">
        <ele>608</ele>
        <time>2021-11-28T10:04:26+01:00</time>
      </trkpt>
      <trkpt lat="45.2069" lon="4.55358">
        <ele>604</ele>
        <time>2021-11-28T10:04:31+01:00</time>
      </trkpt>
      <trkpt lat="45.20599" lon="4.55283">
        <ele>594</ele>
        <time>2021-11-28T10:04:36+01:00</time>
      </trkpt>
      <trkpt lat="45.20497" lon="4.55152">
        <ele>591</ele>
        <time>2021-11-28T10:04:41+01:00</time>
      </trkpt>
      <trkpt lat="45.20447" lon="4.55231">
        <ele>564</ele>
        <time>2021-11-28T10:04:46+01:00</time>
      </trkpt>
      <trkpt lat="45.20493" lon="4.55356">
        <ele>552</ele>
        <time>2021-11-28T10:04:51+01:00</time>
      </trkpt>
      <trkpt lat="45.20479" lon="4.5547">
        <ele>528</ele>
        <time>2021-11-28T10:04:56+01:00</time>
      </trkpt>
      <trkpt lat="45.20511" lon="4.55479">
        <ele>535</ele>
        <time>2021-11-28T10:05:01+01:00</time>
      </trkpt>
      <trkpt lat="45.20512" lon="4.55548">
        <ele>526</ele>
        <time>2021-11-28T10:05:06+01:00</time>
      </trkpt>
      <trkpt lat="45.2045" lon="4.55599">
        <ele>508</ele>
        <time>2021-11-28T10:05:11+01:00</time>
      </trkpt>
      <trkpt lat="45.20417" lon="4.55518">
        <ele>504</ele>
        <time>2021-11-28T10:05:16+01:00</time>
      </trkpt>
      <trkpt lat="45.204" lon="4.55619">
        <ele>501</ele>
        <time>2021-11-28T10:05:21+01:00</time>
      </trkpt>
      <trkpt lat="45.20317" lon="4.55632">
        <ele>507</ele>
        <time>2021-11-28T10:05:26+01:00</time>
      </trkpt>
      <trkpt lat="45.20265" lon="4.55658">
        <ele>523</ele>
        <time>2021-11-28T10:05:31+01:00</time>
      </trkpt>
      <trkpt lat="45.20209" lon="4.55589">
        <ele>528</ele>
        <time>2021-11-28T10:05:36+01:00</time>
      </trkpt>
      <trkpt lat="45.20076" lon="4.55345">
        <ele>526</ele>
        <time>2021-11-28T10:05:41+01:00</time>
      </trkpt>
      <trkpt lat="45.20042" lon="4.55287">
        <ele>530</ele>
        <time>2021-11-28T10:05:46+01:00</time>
      </trkpt>
      <trkpt lat="45.19957" lon="4.55076">
        <ele>536</ele>
        <time>2021-11-28T10:05:51+01:00</time>
      </trkpt>
      <trkpt lat="45.19922" lon="4.55027">
        <ele>542</ele>
        <time>2021-11-28T10:05:56+01:00</time>
      </trkpt>
      <trkpt lat="45.19863" lon="4.54891">
        <ele>542</ele>
        <time>2021-11-28T10:06:01+01:00</time>
      </trkpt>
      <trkpt lat="45.19789" lon="4.54827">
        <ele>552</ele>
        <time>2021-11-28T10:06:06+01:00</time>
      </trkpt>
      <trkpt lat="45.19749" lon="4.54758">
        <ele>549</ele>
        <time>2021-11-28T10:06:11+01:00</time>
      </trkpt>
      <trkpt lat="45.19575" lon="4.54551">
        <ele>581</ele>
        <time>2021-11-28T10:06:16+01:00</time>
      </trkpt>
      <trkpt lat="45.19511" lon="4.5459">
        <ele>588</ele>
        <time>2021-11-28T10:06:21+01:00</time>
      </trkpt>
      <trkpt lat="45.19475" lon="4.54723">
        <ele>610</ele>
        <time>2021-11-28T10:06:26+01:00</time>
      </trkpt>
      <trkpt lat="45.19411" lon="4.54794">
        <ele>613</ele>
        <time>2021-11-28T10:06:31+01:00</time>
      </trkpt>
      <trkpt lat="45.19361" lon="4.54822">
        <ele>617</ele>
        <time>2021-11-28T10:06:36+01:00</time>
      </trkpt>
      <trkpt lat="45.19261" lon="4.54818">
        <ele>617</ele>
        <time>2021-11-28T10:06:41+01:00</time>
      </trkpt>
      <trkpt lat="45.19214" lon="4.54797">
        <ele>624</ele>
        <time>2021-11-28T10:06:46+01:00</time>
      </trkpt>
      <trkpt lat="45.19173" lon="4.54818">
        <ele>633</ele>
        <time>2021-11-28T10:06:51+01:00</time>
      </trkpt>
      <trkpt lat="45.19132" lon="4.54913">
        <ele>650</ele>
        <time>2021-11-28T10:06:56+01:00</time>
      </trkpt>
      <trkpt lat="45.19129" lon="4.55003">
        <ele>655</ele>
        <time>2021-11-28T10:07:01+01:00</time>
      </trkpt>
      <trkpt lat="45.19173" lon="4.5499">
        <ele>649</ele>
        <time>2021-11-28T10:07:06+01:00</time>
      </trkpt>
      <trkpt lat="45.19264" lon="4.54949">
        <ele>654</ele>
        <time>2021-11-28T10:07:11+01:00</time>
      </trkpt>
      <trkpt lat="45.19334" lon="4.54952">
        <ele>661</ele>
        <time>2021-11-28T10:07:16+01:00</time>
      </trkpt>
      <trkpt lat="45.19461" lon="4.54939">
        <ele>663</ele>
        <time>2021-11-28T10:07:21+01:00</time>
      </trkpt>
      <trkpt lat="45.19483" lon="4.55008">
        <ele>681</ele>
        <time>2021-11-28T10:07:26+01:00</time>
      </trkpt>
      <trkpt lat="45.19481" lon="4.55169">
        <ele>703</ele>
        <time>2021-11-28T10:07:31+01:00</time>
      </trkpt>
      <trkpt lat="45.19549" lon="4.55246">
        <ele>698</ele>
        <time>2021-11-28T10:07:36+01:00</time>
      </trkpt>
      <trkpt lat="45.19499" lon="4.55298">
        <ele>711</ele>
        <time>2021-11-28T10:07:41+01:00</time>
      </trkpt>
      <trkpt lat="45.19454" lon="4.55343">
        <ele>727</ele>
        <time>2021-11-28T10:07:46+01:00</time>
      </trkpt>
      <trkpt lat="45.1934" lon="4.55236">
        <ele>755</ele>
        <time>2021-11-28T10:07:51+01:00</time>
      </trkpt>
      <trkpt lat="45.19316" lon="4.5527">
        <ele>761</ele>
        <time>2021-11-28T10:07:56+01:00</time>
      </trkpt>
      <trkpt lat="45.19297" lon="4.55423">
        <ele>777</ele>
        <time>2021-11-28T10:08:01+01:00</time>
      </trkpt>
      <trkpt lat="45.19249" lon="4.5549">
        <ele>787</ele>
        <time>2021-11-28T10:08:06+01:00</time>
      </trkpt>
      <trkpt lat="45.19153" lon="4.55595">
        <ele>788</ele>
        <time>2021-11-28T10:08:11+01:00</time>
      </trkpt>
      <trkpt lat="45.19056" lon="4.55673">
        <ele>798</ele>
        <time>2021-11-28T10:08:16+01:00</time>
      </trkpt>
      <trkpt lat="45.18939" lon="4.55716">
        <ele>799</ele>
        <time>2021-11-28T10:08:21+01:00</time>
      </trkpt>
      <trkpt lat="45.18773" lon="4.55735">
        <ele>805</ele>
        <time>2021-11-28T10:08:26+01:00</time>
      </trkpt>
      <trkpt lat="45.18704" lon="4.55869">
        <ele>805</ele>
        <time>2021-11-28T10:08:31+01:00</time>
      </trkpt>
      <trkpt lat="45.18703" lon="4.55929">
        <ele>800</ele>
        <time>2021-11-28T10:08:36+01:00</time>
      </trkpt>
      <trkpt lat="45.18632" lon="4.56028">
        <ele>812</ele>
        <time>2021-11-28T10:08:41+01:00</time>
      </trkpt>
      <trkpt lat="45.18556" lon="4.56176">
        <ele>826</ele>
        <time>2021-11-28T10:08:46+01:00</time>
      </trkpt>
      <trkpt lat="45.18559" lon="4.56228">
        <ele>830</ele>
        <time>2021-11-28T10:08:51+01:00</time>
      </trkpt>
      <trkpt lat="45.18673" lon="4.56234">
        <ele>827</ele>
        <time>2021-11-28T10:08:56+01:00</time>
      </trkpt>
      <trkpt lat="45.18627" lon="4.56273">
        <ele>836</ele>
        <time>2021-11-28T10:09:01+01:00</time>
      </trkpt>
      <trkpt lat="45.18355" lon="4.56439">
        <ele>890</ele>
        <time>2021-11-28T10:09:06+01:00</time>
      </trkpt>
      <trkpt lat="45.18258" lon="4.56222">
        <ele>907</ele>
        <time>2021-11-28T10:09:11+01:00</time>
      </trkpt>
      <trkpt lat="45.18248" lon="4.56331">
        <ele>915</ele>
        <time>2021-11-28T10:09:16+01:00</time>
      </trkpt>
      <trkpt lat="45.18184" lon="4.56717">
        <ele>942</ele>
        <time>2021-11-28T10:09:21+01:00</time>
      </trkpt>
      <trkpt lat="45.18217" lon="4.5693">
        <ele>938</ele>
        <time>2021-11-28T10:09:26+01:00</time>
      </trkpt>
      <trkpt lat="45.18264" lon="4.57115">
        <ele>929</ele>
        <time>2021-11-28T10:09:31+01:00</time>
      </trkpt>
      <trkpt lat="45.18252" lon="4.57313">
        <ele>924</ele>
        <time>2021-11-28T10:09:36+01:00</time>
      </trkpt>
      <trkpt lat="45.18225" lon="4.57171">
        <ele>909</ele>
        <time>2021-11-28T10:09:41+01:00</time>
      </trkpt>
      <trkpt lat="45.18111" lon="4.56919">
        <ele>907</ele>
        <time>2021-11-28T10:09:46+01:00</time>
      </trkpt>
      <trkpt lat="45.18054" lon="4.56925">
        <ele>897</ele>
        <time>2021-11-28T10:09:51+01:00</time>
      </trkpt>
      <trkpt lat="45.17991" lon="4.56934">
        <ele>892</ele>
        <time>2021-11-28T10:09:56+01:00</time>
      </trkpt>
      <trkpt lat="45.17912" lon="4.5682">
        <ele>903</ele>
        <time>2021-11-28T10:10:01+01:00</time>
      </trkpt>
      <trkpt lat="45.17896" lon="4.56891">
        <ele>897</ele>
        <time>2021-11-28T10:10:06+01:00</time>
      </trkpt>
      <trkpt lat="45.17853" lon="4.57059">
        <ele>885</ele>
        <time>2021-11-28T10:10:11+01:00</time>
      </trkpt>
      <trkpt lat="45.17665" lon="4.57248">
        <ele>878</ele>
        <time>2021-11-28T10:10:16+01:00</time>
      </trkpt>
      <trkpt lat="45.17856" lon="4.57162">
        <ele>861</ele>
        <time>2021-11-28T10:10:21+01:00</time>
      </trkpt>
      <trkpt lat="45.17958" lon="4.57065">
        <ele>860</ele>
        <time>2021-11-28T10:10:26+01:00</time>
      </trkpt>
      <trkpt lat="45.18003" lon="4.57132">
        <ele>850</ele>
        <time>2021-11-28T10:10:31+01:00</time>
      </trkpt>
      <trkpt lat="45.17952" lon="4.57336">
        <ele>850</ele>
        <time>2021-11-28T10:10:36+01:00</time>
      </trkpt>
      <trkpt lat="45.17888" lon="4.57491">
        <ele>850</ele>
        <time>2021-11-28T10:10:41+01:00</time>
      </trkpt>
      <trkpt lat="45.17761" lon="4.57928">
        <ele>842</ele>
        <time>2021-11-28T10:10:46+01:00</time>
      </trkpt>
      <trkpt lat="45.17682" lon="4.58191">
        <ele>831</ele>
        <time>2021-11-28T10:10:51+01:00</time>
      </trkpt>
      <trkpt lat="45.17712" lon="4.58436">
        <ele>823</ele>
        <time>2021-11-28T10:10:56+01:00</time>
      </trkpt>
      <trkpt lat="45.17832" lon="4.58563">
        <ele>827</ele>
        <time>2021-11-28T10:11:01+01:00</time>
      </trkpt>
      <trkpt lat="45.17908" lon="4.58662">
        <ele>823</ele>
        <time>2021-11-28T10:11:06+01:00</time>
      </trkpt>
      <trkpt lat="45.17894" lon="4.58716">
        <ele>831</ele>
        <time>2021-11-28T10:11:11+01:00</time>
      </trkpt>
      <trkpt lat="45.17736" lon="4.58742">
        <ele>809</ele>
        <time>2021-11-28T10:11:16+01:00</time>
      </trkpt>
      <trkpt lat="45.17664" lon="4.58901">
        <ele>811</ele>
        <time>2021-11-28T10:11:21+01:00</time>
      </trkpt>
      <trkpt lat="45.17638" lon="4.59099">
        <ele>800</ele>
        <time>2021-11-28T10:11:26+01:00</time>
      </trkpt>
      <trkpt lat="45.1772" lon="4.59218">
        <ele>813</ele>
        <time>2021-11-28T10:11:31+01:00</time>
      </trkpt>
      <trkpt lat="45.17636" lon="4.59336">
        <ele>809</ele>
        <time>2021-11-28T10:11:36+01:00</time>
      </trkpt>
      <trkpt lat="45.17539" lon="4.59265">
        <ele>790</ele>
        <time>2021-11-28T10:11:41+01:00</time>
      </trkpt>
      <trkpt lat="45.17357" lon="4.59235">
        <ele>781</ele>
        <time>2021-11-28T10:11:46+01:00</time>
      </trkpt>
      <trkpt lat="45.17392" lon="4.59411">
        <ele>781</ele>
        <time>2021-11-28T10:11:51+01:00</time>
      </trkpt>
      <trkpt lat="45.17369" lon="4.59579">
        <ele>769</ele>
        <time>2021-11-28T10:11:56+01:00</time>
      </trkpt>
      <trkpt lat="45.17375" lon="4.59851">
        <ele>758</ele>
        <time>2021-11-28T10:12:01+01:00</time>
      </trkpt>
      <trkpt lat="45.17398" lon="4.59919">
        <ele>758</ele>
        <time>2021-11-28T10:12:06+01:00</time>
      </trkpt>
      <trkpt lat="45.17425" lon="4.59969">
        <ele>761</ele>
        <time>2021-11-28T10:12:11+01:00</time>
      </trkpt>
      <trkpt lat="45.17346" lon="4.60148">
        <ele>735</ele>
        <time>2021-11-28T10:12:16+01:00</time>
      </trkpt>
      <trkpt lat="45.1734" lon="4.60369">
        <ele>723</ele>
        <time>2021-11-28T10:12:21+01:00</time>
      </trkpt>
      <trkpt lat="45.17377" lon="4.60451">
        <ele>716</ele>
        <time>2021-11-28T10:12:26+01:00</time>
      </trkpt>
      <trkpt lat="45.17438" lon="4.60473">
        <ele>724</ele>
        <time>2021-11-28T10:12:31+01:00</time>
      </trkpt>
      <trkpt lat="45.17472" lon="4.60662">
        <ele>707</ele>
        <time>2021-11-28T10:12:36+01:00</time>
      </trkpt>
      <trkpt lat="45.17489" lon="4.60731">
        <ele>707</ele>
        <time>2021-11-28T10:12:41+01:00</time>
      </trkpt>
      <trkpt lat="45.17445" lon="4.60862">
        <ele>693</ele>
        <time>2021-11-28T10:12:46+01:00</time>
      </trkpt>
      <trkpt lat="45.17438" lon="4.60811">
        <ele>688</ele>
        <time>2021-11-28T10:12:51+01:00</time>
      </trkpt>
      <trkpt lat="45.17434" lon="4.60733">
        <ele>690</ele>
        <time>2021-11-28T10:12:56+01:00</time>
      </trkpt>
      <trkpt lat="45.1738" lon="4.60679">
        <ele>679</ele>
        <time>2021-11-28T10:13:01+01:00</time>
      </trkpt>
      <trkpt lat="45.17356" lon="4.60606">
        <ele>680</ele>
        <time>2021-11-28T10:13:06+01:00</time>
      </trkpt>
      <trkpt lat="45.17289" lon="4.6055">
        <ele>675</ele>
        <time>2021-11-28T10:13:11+01:00</time>
      </trkpt>
      <trkpt lat="45.17255" lon="4.60488">
        <ele>675</ele>
        <time>2021-11-28T10:13:16+01:00</time>
      </trkpt>
      <trkpt lat="45.17199" lon="4.60447">
        <ele>666</ele>
        <time>2021-11-28T10:13:21+01:00</time>
      </trkpt>
      <trkpt lat="45.17158" lon="4.60395">
        <ele>660</ele>
        <time>2021-11-28T10:13:26+01:00</time>
      </trkpt>
      <trkpt lat="45.17126" lon="4.60356">
        <ele>654</ele>
        <time>2021-11-28T10:13:31+01:00</time>
      </trkpt>
      <trkpt lat="45.17098" lon="4.60229">
        <ele>653</ele>
        <time>2021-11-28T10:13:36+01:00</time>
      </trkpt>
      <trkpt lat="45.17073" lon="4.60072">
        <ele>660</ele>
        <time>2021-11-28T10:13:41+01:00</time>
      </trkpt>
      <trkpt lat="45.17031" lon="4.60117">
        <ele>667</ele>
        <time>2021-11-28T10:13:46+01:00</time>
      </trkpt>
      <trkpt lat="45.17004" lon="4.60247">
        <ele>657</ele>
        <time>2021-11-28T10:13:51+01:00</time>
      </trkpt>
      <trkpt lat="45.16956" lon="4.60309">
        <ele>657</ele>
        <time>2021-11-28T10:13:56+01:00</time>
      </trkpt>
      <trkpt lat="45.16909" lon="4.60333">
        <ele>660</ele>
        <time>2021-11-28T10:14:01+01:00</time>
      </trkpt>
      <trkpt lat="45.16873" lon="4.60384">
        <ele>650</ele>
        <time>2021-11-28T10:14:06+01:00</time>
      </trkpt>
      <trkpt lat="45.16799" lon="4.60397">
        <ele>650</ele>
        <time>2021-11-28T10:14:11+01:00</time>
      </trkpt>
      <trkpt lat="45.16761" lon="4.60445">
        <ele>649</ele>
        <time>2021-11-28T10:14:16+01:00</time>
      </trkpt>
      <trkpt lat="45.16756" lon="4.60488">
        <ele>647</ele>
        <time>2021-11-28T10:14:21+01:00</time>
      </trkpt>
      <trkpt lat="45.16729" lon="4.60518">
        <ele>652</ele>
        <time>2021-11-28T10:14:26+01:00</time>
      </trkpt>
      <trkpt lat="45.16758" lon="4.60675">
        <ele>648</ele>
        <time>2021-11-28T10:14:31+01:00</time>
      </trkpt>
      <trkpt lat="45.16749" lon="4.60836">
        <ele>645</ele>
        <time>2021-11-28T10:14:36+01:00</time>
      </trkpt>
      <trkpt lat="45.16662" lon="4.60877">
        <ele>643</ele>
        <time>2021-11-28T10:14:41+01:00</time>
      </trkpt>
      <trkpt lat="45.16594" lon="4.60767">
        <ele>649</ele>
        <time>2021-11-28T10:14:46+01:00</time>
      </trkpt>
      <trkpt lat="45.16483" lon="4.60671">
        <ele>661</ele>
        <time>2021-11-28T10:14:51+01:00</time>
      </trkpt>
      <trkpt lat="45.16451" lon="4.60821">
        <ele>654</ele>
        <time>2021-11-28T10:14:56+01:00</time>
      </trkpt>
      <trkpt lat="45.16337" lon="4.60877">
        <ele>663</ele>
        <time>2021-11-28T10:15:01+01:00</time>
      </trkpt>
      <trkpt lat="45.16263" lon="4.60879">
        <ele>663</ele>
        <time>2021-11-28T10:15:06+01:00</time>
      </trkpt>
      <trkpt lat="45.16157" lon="4.60791">
        <ele>673</ele>
        <time>2021-11-28T10:15:11+01:00</time>
      </trkpt>
      <trkpt lat="45.16078" lon="4.60826">
        <ele>671</ele>
        <time>2021-11-28T10:15:16+01:00</time>
      </trkpt>
      <trkpt lat="45.16064" lon="4.61024">
        <ele>676</ele>
        <time>2021-11-28T10:15:21+01:00</time>
      </trkpt>
      <trkpt lat="45.16046" lon="4.61142">
        <ele>673</ele>
        <time>2021-11-28T10:15:26+01:00</time>
      </trkpt>
      <trkpt lat="45.16016" lon="4.61232">
        <ele>667</ele>
        <time>2021-11-28T10:15:31+01:00</time>
      </trkpt>
      <trkpt lat="45.16085" lon="4.61329">
        <ele>661</ele>
        <time>2021-11-28T10:15:36+01:00</time>
      </trkpt>
      <trkpt lat="45.16084" lon="4.61435">
        <ele>655</ele>
        <time>2021-11-28T10:15:41+01:00</time>
      </trkpt>
      <trkpt lat="45.16029" lon="4.61377">
        <ele>650</ele>
        <time>2021-11-28T10:15:46+01:00</time>
      </trkpt>
      <trkpt lat="45.15956" lon="4.61413">
        <ele>633</ele>
        <time>2021-11-28T10:15:51+01:00</time>
      </trkpt>
      <trkpt lat="45.15795" lon="4.61265">
        <ele>628</ele>
        <time>2021-11-28T10:15:56+01:00</time>
      </trkpt>
      <trkpt lat="45.15717" lon="4.61295">
        <ele>617</ele>
        <time>2021-11-28T10:16:01+01:00</time>
      </trkpt>
      <trkpt lat="45.1565" lon="4.61284">
        <ele>611</ele>
        <time>2021-11-28T10:16:06+01:00</time>
      </trkpt>
      <trkpt lat="45.15604" lon="4.61196">
        <ele>603</ele>
        <time>2021-11-28T10:16:11+01:00</time>
      </trkpt>
      <trkpt lat="45.15589" lon="4.61133">
        <ele>600</ele>
        <time>2021-11-28T10:16:16+01:00</time>
      </trkpt>
      <trkpt lat="45.15553" lon="4.61065">
        <ele>593</ele>
        <time>2021-11-28T10:16:21+01:00</time>
      </trkpt>
      <trkpt lat="45.15484" lon="4.60955">
        <ele>587</ele>
        <time>2021-11-28T10:16:26+01:00</time>
      </trkpt>
      <trkpt lat="45.15486" lon="4.61026">
        <ele>578</ele>
        <time>2021-11-28T10:16:31+01:00</time>
      </trkpt>
      <trkpt lat="45.15454" lon="4.61002">
        <ele>572</ele>
        <time>2021-11-28T10:16:36+01:00</time>
      </trkpt>
      <trkpt lat="45.15413" lon="4.61047">
        <ele>557</ele>
        <time>2021-11-28T10:16:41+01:00</time>
      </trkpt>
      <trkpt lat="45.15325" lon="4.61092">
        <ele>532</ele>
        <time>2021-11-28T10:16:46+01:00</time>
      </trkpt>
      <trkpt lat="45.15323" lon="4.61144">
        <ele>531</ele>
        <time>2021-11-28T10:16:51+01:00</time>
      </trkpt>
      <trkpt lat="45.15222" lon="4.61235">
        <ele>502</ele>
        <time>2021-11-28T10:16:56+01:00</time>
      </trkpt>
      <trkpt lat="45.15185" lon="4.61185">
        <ele>493</ele>
        <time>2021-11-28T10:17:01+01:00</time>
      </trkpt>
      <trkpt lat="45.15155" lon="4.61413">
        <ele>482</ele>
        <time>2021-11-28T10:17:06+01:00</time>
      </trkpt>
      <trkpt lat="45.15149" lon="4.61534">
        <ele>481</ele>
        <time>2021-11-28T10:17:11+01:00</time>
      </trkpt>
      <trkpt lat="45.15106" lon="4.61588">
        <ele>478</ele>
        <time>2021-11-28T10:17:16+01:00</time>
      </trkpt>
      <trkpt lat="45.15093" lon="4.61535">
        <ele>479</ele>
        <time>2021-11-28T10:17:21+01:00</time>
      </trkpt>
    </trkseg>
  </trk>
</gpx>